sensor_id;sensor_type;location;lat;lon;timestamp;temperature;humidity
40964;DHT22;26693;51.168;4.138;2022-09-09T00:00:20;15.90;99.90
40964;DHT22;26693;51.168;4.138;2022-09-09T00:03:02;16.00;99.90
40964;DHT22;26693;51.168;4.138;2022-09-09T00:04:09;16.00;99.90
40964;DHT22;26693;51.168;4.138;2022-09-09T00:05:20;16.10;99.90
40964;DHT22;26693;51.168;4.138;2022-09-09T00:06:24;16.20;99.90
40964;DHT22;26693;51.168;4.138;2022-09-09T00:09:47;16.00;99.90
40964;DHT22;26693;51.168;4.138;2022-09-09T00:10:51;16.10;99.90
40964;DHT22;26693;51.168;4.138;2022-09-09T00:12:00;16.20;99.90
40964;DHT22;26693;51.168;4.138;2022-09-09T00:13:16;16.00;99.90
40964;DHT22;26693;51.168;4.138;2022-09-09T00:15:42;16.00;99.90
40964;DHT22;26693;51.168;4.138;2022-09-09T00:16:44;15.90;99.90
40964;DHT22;26693;51.168;4.138;2022-09-09T00:17:52;15.80;99.90
40964;DHT22;26693;51.168;4.138;2022-09-09T00:20:13;15.80;99.90
40964;DHT22;26693;51.168;4.138;2022-09-09T00:21:15;15.90;99.90
40964;DHT22;26693;51.168;4.138;2022-09-09T00:22:17;15.80;99.90
40964;DHT22;26693;51.168;4.138;2022-09-09T00:23:39;15.70;99.90
40964;DHT22;26693;51.168;4.138;2022-09-09T00:25:42;15.60;99.90
40964;DHT22;26693;51.168;4.138;2022-09-09T00:26:44;15.70;99.90
40964;DHT22;26693;51.168;4.138;2022-09-09T00:27:47;15.70;99.90
40964;DHT22;26693;51.168;4.138;2022-09-09T00:29:56;15.70;99.90
40964;DHT22;26693;51.168;4.138;2022-09-09T00:30:59;15.70;99.90
40964;DHT22;26693;51.168;4.138;2022-09-09T00:32:11;15.80;99.90
40964;DHT22;26693;51.168;4.138;2022-09-09T00:33:12;15.80;99.90
40964;DHT22;26693;51.168;4.138;2022-09-09T00:34:20;15.70;99.90
40964;DHT22;26693;51.168;4.138;2022-09-09T00:35:26;15.90;99.90
40964;DHT22;26693;51.168;4.138;2022-09-09T00:36:27;15.80;99.90
40964;DHT22;26693;51.168;4.138;2022-09-09T00:37:29;15.70;99.90
40964;DHT22;26693;51.168;4.138;2022-09-09T00:38:36;15.70;99.90
40964;DHT22;26693;51.168;4.138;2022-09-09T00:39:39;15.80;99.90
40964;DHT22;26693;51.168;4.138;2022-09-09T00:40:52;15.80;99.90
40964;DHT22;26693;51.168;4.138;2022-09-09T00:43:03;15.70;99.90
40964;DHT22;26693;51.168;4.138;2022-09-09T00:44:19;15.80;99.90
40964;DHT22;26693;51.168;4.138;2022-09-09T00:45:38;15.70;99.90
40964;DHT22;26693;51.168;4.138;2022-09-09T00:47:46;15.70;99.90
40964;DHT22;26693;51.168;4.138;2022-09-09T00:50:56;15.70;99.90
40964;DHT22;26693;51.168;4.138;2022-09-09T00:56:59;15.90;99.90
40964;DHT22;26693;51.168;4.138;2022-09-09T00:58:00;15.90;99.90
40964;DHT22;26693;51.168;4.138;2022-09-09T01:00:27;15.80;99.90
40964;DHT22;26693;51.168;4.138;2022-09-09T01:01:27;15.70;99.90
40964;DHT22;26693;51.168;4.138;2022-09-09T01:02:33;15.70;99.90
40964;DHT22;26693;51.168;4.138;2022-09-09T01:03:58;15.70;99.90
40964;DHT22;26693;51.168;4.138;2022-09-09T01:05:02;15.60;99.90
40964;DHT22;26693;51.168;4.138;2022-09-09T01:07:23;15.70;99.90
40964;DHT22;26693;51.168;4.138;2022-09-09T01:08:28;15.60;99.90
40964;DHT22;26693;51.168;4.138;2022-09-09T01:10:47;15.50;99.90
40964;DHT22;26693;51.168;4.138;2022-09-09T01:11:52;15.60;99.90
40964;DHT22;26693;51.168;4.138;2022-09-09T01:12:55;15.60;99.90
40964;DHT22;26693;51.168;4.138;2022-09-09T01:14:01;15.60;99.90
40964;DHT22;26693;51.168;4.138;2022-09-09T01:16:10;15.70;99.90
40964;DHT22;26693;51.168;4.138;2022-09-09T01:17:16;15.70;99.90
40964;DHT22;26693;51.168;4.138;2022-09-09T01:18:17;15.60;99.90
40964;DHT22;26693;51.168;4.138;2022-09-09T01:19:24;15.60;99.90
40964;DHT22;26693;51.168;4.138;2022-09-09T01:20:29;15.50;99.90
40964;DHT22;26693;51.168;4.138;2022-09-09T01:24:12;15.60;99.90
40964;DHT22;26693;51.168;4.138;2022-09-09T01:26:39;15.60;99.90
40964;DHT22;26693;51.168;4.138;2022-09-09T01:27:41;15.60;99.90
40964;DHT22;26693;51.168;4.138;2022-09-09T01:28:47;15.60;99.90
40964;DHT22;26693;51.168;4.138;2022-09-09T01:29:48;15.60;99.90
40964;DHT22;26693;51.168;4.138;2022-09-09T01:30:49;15.50;99.90
40964;DHT22;26693;51.168;4.138;2022-09-09T01:32:00;15.50;99.90
40964;DHT22;26693;51.168;4.138;2022-09-09T01:33:00;15.50;99.90
40964;DHT22;26693;51.168;4.138;2022-09-09T01:34:07;15.50;99.90
40964;DHT22;26693;51.168;4.138;2022-09-09T01:35:15;15.40;99.90
40964;DHT22;26693;51.168;4.138;2022-09-09T01:36:24;15.50;99.90
40964;DHT22;26693;51.168;4.138;2022-09-09T01:37:26;15.60;99.90
40964;DHT22;26693;51.168;4.138;2022-09-09T01:38:27;15.60;99.90
40964;DHT22;26693;51.168;4.138;2022-09-09T01:39:28;15.60;99.90
40964;DHT22;26693;51.168;4.138;2022-09-09T01:40:28;15.60;99.90
40964;DHT22;26693;51.168;4.138;2022-09-09T01:41:29;15.60;99.90
40964;DHT22;26693;51.168;4.138;2022-09-09T01:42:29;15.60;99.90
40964;DHT22;26693;51.168;4.138;2022-09-09T01:43:30;15.70;99.90
40964;DHT22;26693;51.168;4.138;2022-09-09T01:44:30;15.80;99.90
40964;DHT22;26693;51.168;4.138;2022-09-09T01:45:31;15.90;99.90
40964;DHT22;26693;51.168;4.138;2022-09-09T01:46:31;15.80;99.90
40964;DHT22;26693;51.168;4.138;2022-09-09T01:47:32;15.60;99.90
40964;DHT22;26693;51.168;4.138;2022-09-09T01:48:33;15.60;99.90
40964;DHT22;26693;51.168;4.138;2022-09-09T01:49:34;15.70;99.90
40964;DHT22;26693;51.168;4.138;2022-09-09T01:50:34;15.60;99.90
40964;DHT22;26693;51.168;4.138;2022-09-09T01:51:36;15.80;99.90
40964;DHT22;26693;51.168;4.138;2022-09-09T01:52:37;15.70;99.90
40964;DHT22;26693;51.168;4.138;2022-09-09T01:53:39;15.70;99.90
40964;DHT22;26693;51.168;4.138;2022-09-09T01:54:41;15.70;99.90
40964;DHT22;26693;51.168;4.138;2022-09-09T01:55:44;15.70;99.90
40964;DHT22;26693;51.168;4.138;2022-09-09T01:58:12;15.70;99.90
40964;DHT22;26693;51.168;4.138;2022-09-09T01:59:18;15.70;99.90
40964;DHT22;26693;51.168;4.138;2022-09-09T02:00:23;15.70;99.90
40964;DHT22;26693;51.168;4.138;2022-09-09T02:02:39;15.70;99.90
40964;DHT22;26693;51.168;4.138;2022-09-09T02:03:45;15.70;99.90
40964;DHT22;26693;51.168;4.138;2022-09-09T02:04:48;15.60;99.90
40964;DHT22;26693;51.168;4.138;2022-09-09T02:05:56;15.70;99.90
40964;DHT22;26693;51.168;4.138;2022-09-09T02:07:00;15.80;99.90
40964;DHT22;26693;51.168;4.138;2022-09-09T02:08:03;15.70;99.90
40964;DHT22;26693;51.168;4.138;2022-09-09T02:09:06;15.70;99.90
40964;DHT22;26693;51.168;4.138;2022-09-09T02:10:19;15.60;99.90
40964;DHT22;26693;51.168;4.138;2022-09-09T02:11:22;15.80;99.90
40964;DHT22;26693;51.168;4.138;2022-09-09T02:12:23;15.70;99.90
40964;DHT22;26693;51.168;4.138;2022-09-09T02:13:25;15.70;99.90
40964;DHT22;26693;51.168;4.138;2022-09-09T02:14:27;15.70;99.90
40964;DHT22;26693;51.168;4.138;2022-09-09T02:15:34;15.60;99.90
40964;DHT22;26693;51.168;4.138;2022-09-09T02:16:40;15.60;99.90
40964;DHT22;26693;51.168;4.138;2022-09-09T02:17:42;15.60;99.90
40964;DHT22;26693;51.168;4.138;2022-09-09T02:18:53;15.50;99.90
40964;DHT22;26693;51.168;4.138;2022-09-09T02:19:58;15.60;99.90
40964;DHT22;26693;51.168;4.138;2022-09-09T02:21:00;15.60;99.90
40964;DHT22;26693;51.168;4.138;2022-09-09T02:22:01;15.70;99.90
40964;DHT22;26693;51.168;4.138;2022-09-09T02:23:02;15.90;99.90
40964;DHT22;26693;51.168;4.138;2022-09-09T02:24:05;15.80;99.90
40964;DHT22;26693;51.168;4.138;2022-09-09T02:25:08;15.80;99.90
40964;DHT22;26693;51.168;4.138;2022-09-09T02:26:10;15.70;99.90
40964;DHT22;26693;51.168;4.138;2022-09-09T02:27:13;15.70;99.90
40964;DHT22;26693;51.168;4.138;2022-09-09T02:28:14;15.70;99.90
40964;DHT22;26693;51.168;4.138;2022-09-09T02:29:19;15.70;99.90
40964;DHT22;26693;51.168;4.138;2022-09-09T02:30:21;15.60;99.90
40964;DHT22;26693;51.168;4.138;2022-09-09T02:31:22;15.60;99.90
40964;DHT22;26693;51.168;4.138;2022-09-09T02:32:24;15.70;99.90
40964;DHT22;26693;51.168;4.138;2022-09-09T02:33:26;15.70;99.90
40964;DHT22;26693;51.168;4.138;2022-09-09T02:34:27;15.70;99.90
40964;DHT22;26693;51.168;4.138;2022-09-09T02:35:29;15.70;99.90
40964;DHT22;26693;51.168;4.138;2022-09-09T02:36:31;15.70;99.90
40964;DHT22;26693;51.168;4.138;2022-09-09T02:37:35;15.70;99.90
40964;DHT22;26693;51.168;4.138;2022-09-09T02:38:38;15.70;99.90
40964;DHT22;26693;51.168;4.138;2022-09-09T02:39:40;15.70;99.90
40964;DHT22;26693;51.168;4.138;2022-09-09T02:40:41;15.80;99.90
40964;DHT22;26693;51.168;4.138;2022-09-09T02:41:41;15.70;99.90
40964;DHT22;26693;51.168;4.138;2022-09-09T02:42:43;15.70;99.90
40964;DHT22;26693;51.168;4.138;2022-09-09T02:43:44;15.70;99.90
40964;DHT22;26693;51.168;4.138;2022-09-09T02:44:44;15.70;99.90
40964;DHT22;26693;51.168;4.138;2022-09-09T02:45:53;15.70;99.90
40964;DHT22;26693;51.168;4.138;2022-09-09T02:48:18;15.80;99.90
40964;DHT22;26693;51.168;4.138;2022-09-09T02:50:33;15.70;99.90
40964;DHT22;26693;51.168;4.138;2022-09-09T02:51:51;15.70;99.90
40964;DHT22;26693;51.168;4.138;2022-09-09T02:55:30;15.90;99.90
40964;DHT22;26693;51.168;4.138;2022-09-09T02:56:32;15.90;99.90
40964;DHT22;26693;51.168;4.138;2022-09-09T02:57:38;15.90;99.90
40964;DHT22;26693;51.168;4.138;2022-09-09T02:58:39;16.10;99.90
40964;DHT22;26693;51.168;4.138;2022-09-09T02:59:39;16.10;99.90
40964;DHT22;26693;51.168;4.138;2022-09-09T03:00:40;16.10;99.90
40964;DHT22;26693;51.168;4.138;2022-09-09T03:01:41;16.00;99.90
40964;DHT22;26693;51.168;4.138;2022-09-09T03:02:41;15.90;99.90
40964;DHT22;26693;51.168;4.138;2022-09-09T03:03:42;16.00;99.90
40964;DHT22;26693;51.168;4.138;2022-09-09T03:04:44;15.90;99.90
40964;DHT22;26693;51.168;4.138;2022-09-09T03:05:45;15.90;99.90
40964;DHT22;26693;51.168;4.138;2022-09-09T03:06:45;16.00;99.90
40964;DHT22;26693;51.168;4.138;2022-09-09T03:07:46;15.90;99.90
40964;DHT22;26693;51.168;4.138;2022-09-09T03:08:46;15.80;99.90
40964;DHT22;26693;51.168;4.138;2022-09-09T03:09:47;15.80;99.90
40964;DHT22;26693;51.168;4.138;2022-09-09T03:10:47;15.90;99.90
40964;DHT22;26693;51.168;4.138;2022-09-09T03:11:48;16.00;99.90
40964;DHT22;26693;51.168;4.138;2022-09-09T03:12:49;16.00;99.90
40964;DHT22;26693;51.168;4.138;2022-09-09T03:13:50;16.00;99.90
40964;DHT22;26693;51.168;4.138;2022-09-09T03:14:51;16.10;99.90
40964;DHT22;26693;51.168;4.138;2022-09-09T03:15:52;15.90;99.90
40964;DHT22;26693;51.168;4.138;2022-09-09T03:16:52;15.90;99.90
40964;DHT22;26693;51.168;4.138;2022-09-09T03:17:53;15.90;99.90
40964;DHT22;26693;51.168;4.138;2022-09-09T03:18:54;16.00;99.90
40964;DHT22;26693;51.168;4.138;2022-09-09T03:19:54;16.00;99.90
40964;DHT22;26693;51.168;4.138;2022-09-09T03:20:56;15.90;99.90
40964;DHT22;26693;51.168;4.138;2022-09-09T03:21:58;16.00;99.90
40964;DHT22;26693;51.168;4.138;2022-09-09T03:22:59;16.00;99.90
40964;DHT22;26693;51.168;4.138;2022-09-09T03:23:59;16.10;99.90
40964;DHT22;26693;51.168;4.138;2022-09-09T03:25:00;16.00;99.90
40964;DHT22;26693;51.168;4.138;2022-09-09T03:26:02;16.10;99.90
40964;DHT22;26693;51.168;4.138;2022-09-09T03:27:03;15.90;99.90
40964;DHT22;26693;51.168;4.138;2022-09-09T03:28:03;15.90;99.90
40964;DHT22;26693;51.168;4.138;2022-09-09T03:29:04;16.00;99.90
40964;DHT22;26693;51.168;4.138;2022-09-09T03:30:06;16.00;99.90
40964;DHT22;26693;51.168;4.138;2022-09-09T03:31:07;16.00;99.90
40964;DHT22;26693;51.168;4.138;2022-09-09T03:32:10;16.00;99.90
40964;DHT22;26693;51.168;4.138;2022-09-09T03:33:11;15.90;99.90
40964;DHT22;26693;51.168;4.138;2022-09-09T03:34:12;16.00;99.90
40964;DHT22;26693;51.168;4.138;2022-09-09T03:35:14;16.10;99.90
40964;DHT22;26693;51.168;4.138;2022-09-09T03:36:15;16.10;99.90
40964;DHT22;26693;51.168;4.138;2022-09-09T03:37:16;16.10;99.90
40964;DHT22;26693;51.168;4.138;2022-09-09T03:38:17;16.00;99.90
40964;DHT22;26693;51.168;4.138;2022-09-09T03:39:18;16.00;99.90
40964;DHT22;26693;51.168;4.138;2022-09-09T03:40:18;16.00;99.90
40964;DHT22;26693;51.168;4.138;2022-09-09T03:41:23;16.00;99.90
40964;DHT22;26693;51.168;4.138;2022-09-09T03:42:24;16.00;99.90
40964;DHT22;26693;51.168;4.138;2022-09-09T03:43:25;16.00;99.90
40964;DHT22;26693;51.168;4.138;2022-09-09T03:44:25;15.90;99.90
40964;DHT22;26693;51.168;4.138;2022-09-09T03:45:26;15.90;99.90
40964;DHT22;26693;51.168;4.138;2022-09-09T03:46:26;16.00;99.90
40964;DHT22;26693;51.168;4.138;2022-09-09T03:47:27;16.10;99.90
40964;DHT22;26693;51.168;4.138;2022-09-09T03:48:27;16.20;99.90
40964;DHT22;26693;51.168;4.138;2022-09-09T03:49:28;16.20;99.90
40964;DHT22;26693;51.168;4.138;2022-09-09T03:50:28;16.10;99.90
40964;DHT22;26693;51.168;4.138;2022-09-09T03:51:29;16.10;99.90
40964;DHT22;26693;51.168;4.138;2022-09-09T03:52:30;16.00;99.90
40964;DHT22;26693;51.168;4.138;2022-09-09T03:53:30;16.10;99.90
40964;DHT22;26693;51.168;4.138;2022-09-09T03:54:32;16.10;99.90
40964;DHT22;26693;51.168;4.138;2022-09-09T03:55:32;16.10;99.90
40964;DHT22;26693;51.168;4.138;2022-09-09T03:56:32;16.10;99.90
40964;DHT22;26693;51.168;4.138;2022-09-09T03:57:33;16.10;99.90
40964;DHT22;26693;51.168;4.138;2022-09-09T03:58:35;16.10;99.90
40964;DHT22;26693;51.168;4.138;2022-09-09T03:59:36;16.20;99.90
40964;DHT22;26693;51.168;4.138;2022-09-09T04:00:36;16.30;99.90
40964;DHT22;26693;51.168;4.138;2022-09-09T04:01:37;16.30;99.90
40964;DHT22;26693;51.168;4.138;2022-09-09T04:02:37;16.40;99.90
40964;DHT22;26693;51.168;4.138;2022-09-09T04:03:39;16.20;99.90
40964;DHT22;26693;51.168;4.138;2022-09-09T04:04:40;16.30;99.90
40964;DHT22;26693;51.168;4.138;2022-09-09T04:05:40;16.10;99.90
40964;DHT22;26693;51.168;4.138;2022-09-09T04:06:42;16.00;99.90
40964;DHT22;26693;51.168;4.138;2022-09-09T04:07:42;16.10;99.90
40964;DHT22;26693;51.168;4.138;2022-09-09T04:08:43;16.10;99.90
40964;DHT22;26693;51.168;4.138;2022-09-09T04:09:45;16.00;99.90
40964;DHT22;26693;51.168;4.138;2022-09-09T04:10:47;15.90;99.90
40964;DHT22;26693;51.168;4.138;2022-09-09T04:11:47;15.90;99.90
40964;DHT22;26693;51.168;4.138;2022-09-09T04:12:49;15.90;99.90
40964;DHT22;26693;51.168;4.138;2022-09-09T04:13:50;15.80;99.90
40964;DHT22;26693;51.168;4.138;2022-09-09T04:14:50;15.80;99.90
40964;DHT22;26693;51.168;4.138;2022-09-09T04:15:51;15.90;99.90
40964;DHT22;26693;51.168;4.138;2022-09-09T04:16:53;15.90;99.90
40964;DHT22;26693;51.168;4.138;2022-09-09T04:17:53;15.90;99.90
40964;DHT22;26693;51.168;4.138;2022-09-09T04:18:53;16.00;99.90
40964;DHT22;26693;51.168;4.138;2022-09-09T04:19:54;15.90;99.90
40964;DHT22;26693;51.168;4.138;2022-09-09T04:20:54;16.00;99.90
40964;DHT22;26693;51.168;4.138;2022-09-09T04:21:57;15.90;99.90
40964;DHT22;26693;51.168;4.138;2022-09-09T04:22:57;16.00;99.90
40964;DHT22;26693;51.168;4.138;2022-09-09T04:23:58;16.10;99.90
40964;DHT22;26693;51.168;4.138;2022-09-09T04:24:58;16.10;99.90
40964;DHT22;26693;51.168;4.138;2022-09-09T04:26:00;16.10;99.90
40964;DHT22;26693;51.168;4.138;2022-09-09T04:27:01;16.10;99.90
40964;DHT22;26693;51.168;4.138;2022-09-09T04:28:01;16.00;99.90
40964;DHT22;26693;51.168;4.138;2022-09-09T04:29:03;16.10;99.90
40964;DHT22;26693;51.168;4.138;2022-09-09T04:30:04;16.10;99.90
40964;DHT22;26693;51.168;4.138;2022-09-09T04:31:15;16.10;99.90
40964;DHT22;26693;51.168;4.138;2022-09-09T04:32:18;16.20;99.90
40964;DHT22;26693;51.168;4.138;2022-09-09T04:33:18;16.10;99.90
40964;DHT22;26693;51.168;4.138;2022-09-09T04:34:19;16.10;99.90
40964;DHT22;26693;51.168;4.138;2022-09-09T04:35:19;16.00;99.90
40964;DHT22;26693;51.168;4.138;2022-09-09T04:36:20;15.90;99.90
40964;DHT22;26693;51.168;4.138;2022-09-09T04:37:21;15.80;99.90
40964;DHT22;26693;51.168;4.138;2022-09-09T04:38:21;15.90;99.90
40964;DHT22;26693;51.168;4.138;2022-09-09T04:39:23;15.90;99.90
40964;DHT22;26693;51.168;4.138;2022-09-09T04:40:23;15.90;99.90
40964;DHT22;26693;51.168;4.138;2022-09-09T04:41:25;15.80;99.90
40964;DHT22;26693;51.168;4.138;2022-09-09T04:42:25;15.80;99.90
40964;DHT22;26693;51.168;4.138;2022-09-09T04:43:25;15.90;99.90
40964;DHT22;26693;51.168;4.138;2022-09-09T04:44:31;15.80;99.90
40964;DHT22;26693;51.168;4.138;2022-09-09T04:45:31;15.70;99.90
40964;DHT22;26693;51.168;4.138;2022-09-09T04:46:32;15.80;99.90
40964;DHT22;26693;51.168;4.138;2022-09-09T04:47:34;15.70;99.90
40964;DHT22;26693;51.168;4.138;2022-09-09T04:48:36;15.70;99.90
40964;DHT22;26693;51.168;4.138;2022-09-09T04:49:36;15.80;99.90
40964;DHT22;26693;51.168;4.138;2022-09-09T04:50:37;15.80;99.90
40964;DHT22;26693;51.168;4.138;2022-09-09T04:51:37;15.70;99.90
40964;DHT22;26693;51.168;4.138;2022-09-09T04:52:38;15.90;99.90
40964;DHT22;26693;51.168;4.138;2022-09-09T04:53:39;15.80;99.90
40964;DHT22;26693;51.168;4.138;2022-09-09T04:54:40;15.80;99.90
40964;DHT22;26693;51.168;4.138;2022-09-09T04:55:40;15.90;99.90
40964;DHT22;26693;51.168;4.138;2022-09-09T04:56:41;15.80;99.90
40964;DHT22;26693;51.168;4.138;2022-09-09T04:57:42;15.90;99.90
40964;DHT22;26693;51.168;4.138;2022-09-09T04:58:43;15.90;99.90
40964;DHT22;26693;51.168;4.138;2022-09-09T04:59:44;15.90;99.90
40964;DHT22;26693;51.168;4.138;2022-09-09T05:00:44;15.90;99.90
40964;DHT22;26693;51.168;4.138;2022-09-09T05:01:45;15.90;99.90
40964;DHT22;26693;51.168;4.138;2022-09-09T05:02:45;16.00;99.90
40964;DHT22;26693;51.168;4.138;2022-09-09T05:03:46;16.00;99.90
40964;DHT22;26693;51.168;4.138;2022-09-09T05:04:46;16.10;99.90
40964;DHT22;26693;51.168;4.138;2022-09-09T05:05:49;16.10;99.90
40964;DHT22;26693;51.168;4.138;2022-09-09T05:06:50;16.00;99.90
40964;DHT22;26693;51.168;4.138;2022-09-09T05:07:50;16.00;99.90
40964;DHT22;26693;51.168;4.138;2022-09-09T05:08:51;16.00;99.90
40964;DHT22;26693;51.168;4.138;2022-09-09T05:09:51;15.90;99.90
40964;DHT22;26693;51.168;4.138;2022-09-09T05:10:52;15.80;99.90
40964;DHT22;26693;51.168;4.138;2022-09-09T05:11:52;15.90;99.90
40964;DHT22;26693;51.168;4.138;2022-09-09T05:12:53;15.90;99.90
40964;DHT22;26693;51.168;4.138;2022-09-09T05:13:54;15.90;99.90
40964;DHT22;26693;51.168;4.138;2022-09-09T05:14:54;15.80;99.90
40964;DHT22;26693;51.168;4.138;2022-09-09T05:15:55;15.80;99.90
40964;DHT22;26693;51.168;4.138;2022-09-09T05:16:55;15.80;99.90
40964;DHT22;26693;51.168;4.138;2022-09-09T05:17:57;15.90;99.90
40964;DHT22;26693;51.168;4.138;2022-09-09T05:18:59;15.90;99.90
40964;DHT22;26693;51.168;4.138;2022-09-09T05:19:59;15.90;99.90
40964;DHT22;26693;51.168;4.138;2022-09-09T05:21:00;16.00;99.90
40964;DHT22;26693;51.168;4.138;2022-09-09T05:22:00;16.00;99.90
40964;DHT22;26693;51.168;4.138;2022-09-09T05:23:01;15.90;99.90
40964;DHT22;26693;51.168;4.138;2022-09-09T05:24:01;15.90;99.90
40964;DHT22;26693;51.168;4.138;2022-09-09T05:25:02;15.90;99.90
40964;DHT22;26693;51.168;4.138;2022-09-09T05:26:03;15.90;99.90
40964;DHT22;26693;51.168;4.138;2022-09-09T05:27:03;16.00;99.90
40964;DHT22;26693;51.168;4.138;2022-09-09T05:28:06;16.00;99.90
40964;DHT22;26693;51.168;4.138;2022-09-09T05:29:07;16.00;99.90
40964;DHT22;26693;51.168;4.138;2022-09-09T05:30:08;16.00;99.90
40964;DHT22;26693;51.168;4.138;2022-09-09T05:31:09;16.10;99.90
40964;DHT22;26693;51.168;4.138;2022-09-09T05:32:11;16.00;99.90
40964;DHT22;26693;51.168;4.138;2022-09-09T05:33:13;16.10;99.90
40964;DHT22;26693;51.168;4.138;2022-09-09T05:34:14;16.10;99.90
40964;DHT22;26693;51.168;4.138;2022-09-09T05:35:14;16.10;99.90
40964;DHT22;26693;51.168;4.138;2022-09-09T05:36:16;16.10;99.90
40964;DHT22;26693;51.168;4.138;2022-09-09T05:37:16;16.00;99.90
40964;DHT22;26693;51.168;4.138;2022-09-09T05:38:17;16.00;99.90
40964;DHT22;26693;51.168;4.138;2022-09-09T05:39:18;16.00;99.90
40964;DHT22;26693;51.168;4.138;2022-09-09T05:40:18;16.00;99.90
40964;DHT22;26693;51.168;4.138;2022-09-09T05:41:19;16.00;99.90
40964;DHT22;26693;51.168;4.138;2022-09-09T05:42:20;16.00;99.90
40964;DHT22;26693;51.168;4.138;2022-09-09T05:43:20;15.90;99.90
40964;DHT22;26693;51.168;4.138;2022-09-09T05:44:21;15.90;99.90
40964;DHT22;26693;51.168;4.138;2022-09-09T05:45:23;15.80;99.90
40964;DHT22;26693;51.168;4.138;2022-09-09T05:46:24;15.90;99.90
40964;DHT22;26693;51.168;4.138;2022-09-09T05:47:25;16.00;99.90
40964;DHT22;26693;51.168;4.138;2022-09-09T05:48:28;15.90;99.90
40964;DHT22;26693;51.168;4.138;2022-09-09T05:49:29;15.90;99.90
40964;DHT22;26693;51.168;4.138;2022-09-09T05:50:30;16.00;99.90
40964;DHT22;26693;51.168;4.138;2022-09-09T05:51:30;15.90;99.90
40964;DHT22;26693;51.168;4.138;2022-09-09T05:52:31;16.00;99.90
40964;DHT22;26693;51.168;4.138;2022-09-09T05:53:32;16.00;99.90
40964;DHT22;26693;51.168;4.138;2022-09-09T05:54:34;16.00;99.90
40964;DHT22;26693;51.168;4.138;2022-09-09T05:55:34;16.10;99.90
40964;DHT22;26693;51.168;4.138;2022-09-09T05:56:35;16.00;99.90
40964;DHT22;26693;51.168;4.138;2022-09-09T05:57:35;16.00;99.90
40964;DHT22;26693;51.168;4.138;2022-09-09T05:58:36;15.90;99.90
40964;DHT22;26693;51.168;4.138;2022-09-09T05:59:37;16.00;99.90
40964;DHT22;26693;51.168;4.138;2022-09-09T06:00:38;16.10;99.90
40964;DHT22;26693;51.168;4.138;2022-09-09T06:01:39;16.10;99.90
40964;DHT22;26693;51.168;4.138;2022-09-09T06:02:42;16.00;99.90
40964;DHT22;26693;51.168;4.138;2022-09-09T06:03:44;15.90;99.90
40964;DHT22;26693;51.168;4.138;2022-09-09T06:04:46;16.00;99.90
40964;DHT22;26693;51.168;4.138;2022-09-09T06:05:48;16.10;99.90
40964;DHT22;26693;51.168;4.138;2022-09-09T06:06:57;16.00;99.90
40964;DHT22;26693;51.168;4.138;2022-09-09T06:10:10;16.10;99.90
40964;DHT22;26693;51.168;4.138;2022-09-09T06:11:15;16.00;99.90
40964;DHT22;26693;51.168;4.138;2022-09-09T06:15:51;16.30;99.90
40964;DHT22;26693;51.168;4.138;2022-09-09T06:35:07;16.30;99.90
40964;DHT22;26693;51.168;4.138;2022-09-09T06:36:12;16.30;99.90
40964;DHT22;26693;51.168;4.138;2022-09-09T06:37:12;16.20;99.90
40964;DHT22;26693;51.168;4.138;2022-09-09T06:38:20;16.30;99.90
40964;DHT22;26693;51.168;4.138;2022-09-09T06:39:22;16.20;99.90
40964;DHT22;26693;51.168;4.138;2022-09-09T06:40:26;16.20;99.90
40964;DHT22;26693;51.168;4.138;2022-09-09T06:41:40;16.30;99.90
40964;DHT22;26693;51.168;4.138;2022-09-09T06:42:49;16.30;99.90
40964;DHT22;26693;51.168;4.138;2022-09-09T06:43:50;16.30;99.90
40964;DHT22;26693;51.168;4.138;2022-09-09T06:44:51;16.40;99.90
40964;DHT22;26693;51.168;4.138;2022-09-09T06:46:04;16.40;99.90
40964;DHT22;26693;51.168;4.138;2022-09-09T06:47:29;16.30;99.90
40964;DHT22;26693;51.168;4.138;2022-09-09T06:48:34;16.30;99.90
40964;DHT22;26693;51.168;4.138;2022-09-09T06:49:35;16.40;99.90
40964;DHT22;26693;51.168;4.138;2022-09-09T06:50:35;16.50;99.90
40964;DHT22;26693;51.168;4.138;2022-09-09T06:51:37;16.50;99.90
40964;DHT22;26693;51.168;4.138;2022-09-09T06:52:48;16.40;99.90
40964;DHT22;26693;51.168;4.138;2022-09-09T06:53:53;16.40;99.90
40964;DHT22;26693;51.168;4.138;2022-09-09T06:54:54;16.50;99.90
40964;DHT22;26693;51.168;4.138;2022-09-09T06:56:13;16.30;99.90
40964;DHT22;26693;51.168;4.138;2022-09-09T06:57:21;16.40;99.90
40964;DHT22;26693;51.168;4.138;2022-09-09T06:58:30;16.30;99.90
40964;DHT22;26693;51.168;4.138;2022-09-09T06:59:36;16.30;99.90
40964;DHT22;26693;51.168;4.138;2022-09-09T07:00:37;16.30;99.90
40964;DHT22;26693;51.168;4.138;2022-09-09T07:01:39;16.30;99.90
40964;DHT22;26693;51.168;4.138;2022-09-09T07:02:47;16.20;99.90
40964;DHT22;26693;51.168;4.138;2022-09-09T07:03:52;16.20;99.90
40964;DHT22;26693;51.168;4.138;2022-09-09T07:04:52;16.20;99.90
40964;DHT22;26693;51.168;4.138;2022-09-09T07:05:55;16.30;99.90
40964;DHT22;26693;51.168;4.138;2022-09-09T07:07:02;16.30;99.90
40964;DHT22;26693;51.168;4.138;2022-09-09T07:08:03;16.10;99.90
40964;DHT22;26693;51.168;4.138;2022-09-09T07:09:12;16.20;99.90
40964;DHT22;26693;51.168;4.138;2022-09-09T07:10:13;16.20;99.90
40964;DHT22;26693;51.168;4.138;2022-09-09T07:11:22;16.20;99.90
40964;DHT22;26693;51.168;4.138;2022-09-09T07:12:22;16.10;99.90
40964;DHT22;26693;51.168;4.138;2022-09-09T07:13:41;16.00;99.90
40964;DHT22;26693;51.168;4.138;2022-09-09T07:14:56;16.20;99.90
40964;DHT22;26693;51.168;4.138;2022-09-09T07:16:06;16.20;99.90
40964;DHT22;26693;51.168;4.138;2022-09-09T07:18:35;16.20;99.90
40964;DHT22;26693;51.168;4.138;2022-09-09T07:20:53;16.30;99.90
40964;DHT22;26693;51.168;4.138;2022-09-09T07:21:54;16.30;99.90
40964;DHT22;26693;51.168;4.138;2022-09-09T07:23:11;16.20;99.90
40964;DHT22;26693;51.168;4.138;2022-09-09T07:25:50;16.20;99.90
40964;DHT22;26693;51.168;4.138;2022-09-09T07:26:53;16.30;99.90
40964;DHT22;26693;51.168;4.138;2022-09-09T07:27:54;16.30;99.90
40964;DHT22;26693;51.168;4.138;2022-09-09T07:28:57;16.30;99.90
40964;DHT22;26693;51.168;4.138;2022-09-09T07:29:58;16.40;99.90
40964;DHT22;26693;51.168;4.138;2022-09-09T07:31:00;16.30;99.90
40964;DHT22;26693;51.168;4.138;2022-09-09T07:32:04;16.20;99.90
40964;DHT22;26693;51.168;4.138;2022-09-09T07:33:09;16.20;99.90
40964;DHT22;26693;51.168;4.138;2022-09-09T07:34:10;16.30;99.90
40964;DHT22;26693;51.168;4.138;2022-09-09T07:35:11;16.40;99.90
40964;DHT22;26693;51.168;4.138;2022-09-09T07:36:22;16.50;99.90
40964;DHT22;26693;51.168;4.138;2022-09-09T07:37:27;16.60;99.90
40964;DHT22;26693;51.168;4.138;2022-09-09T07:38:31;16.50;99.90
40964;DHT22;26693;51.168;4.138;2022-09-09T07:39:35;16.50;99.90